Main page
METAR-TAF:

METAR-TAF

Airports :

Sheremetyevo International Airport

Moscow-Sheremetyevo, Russia

latitude: 55-58N, longitude: 037-25E, elevation: 190 m

Current weather observation

The report was made 21 minutes ago, at 22:00 UTC
Wind 6 kt from the North/Northwest, varying between North/Northwest and East
Temperature 15°C
Humidity 88%
Pressure 1022 hPa
Visibility 10 km or more
no clouds below 1500 m and no cumulonimbus

METAR: UUEE 092200Z 34003MPS 330V080 CAVOK 15/13 Q1022 R06R/CLRD62 R06C/CLRD62 NOSIG

Time: 01:21 (22:21 UTC)

Forecast

The report was made 2 hours and 27 minutes ago, at 19:54 UTC
Forecast valid from 09 at 21 UTC to 10 at 21 UTC
Wind 6 kt from the North with gusts up to 16 kt
Visibility: 9000 m
Scattered clouds at a height of 3500 ft
Temporary
from 10 at 09 UTC to 10 at 15 UTC
Wind 16 kt from the North with gusts up to 25 kt

TAF: UUEE 091954Z 0921/1021 01003G08MPS 9000 SCT035 TX23/1012Z TN14/1002Z TEMPO 1009/1015 36008G13MPS

Weather observations and forecasts of more than 4000 airports (METAR and TAF reports).

The available stations are represented by yellow and red dots on the map.

Hover mouse over dot to see the name of the station.

Then click to see weather observations and forecasts.

To change the map : click on the green buttons with a black cross to zoom in, on the green button with a dash to zoom out, or on the green arrows for adjacent maps.


METAR-TAF: